createdAt,value
2022-12-23T00:00:28.634Z,8.23
2022-12-23T00:02:55.480Z,9.30
2022-12-23T00:05:22.660Z,8.63
2022-12-23T00:07:49.291Z,7.53
2022-12-23T00:10:15.967Z,7.78
2022-12-23T00:13:01.464Z,8.40
2022-12-23T00:15:28.139Z,6.50
2022-12-23T00:17:54.764Z,7.72
2022-12-23T00:20:21.535Z,5.63
2022-12-23T00:23:06.062Z,6.57
2022-12-23T00:25:40.960Z,6.97
2022-12-23T00:28:10.201Z,7.28
2022-12-23T00:30:57.148Z,6.60
2022-12-23T00:33:26.408Z,6.05
2022-12-23T00:35:53.364Z,6.30
2022-12-23T00:38:39.569Z,6.43
2022-12-23T00:41:28.897Z,5.68
2022-12-23T00:43:55.605Z,5.28
2022-12-23T00:46:22.222Z,5.25
2022-12-23T00:49:07.797Z,5.38
2022-12-23T00:51:34.472Z,5.47
2022-12-23T00:54:01.545Z,6.35
2022-12-23T00:56:28.388Z,6.47
2022-12-23T00:58:55.044Z,6.38
2022-12-23T01:01:41.042Z,6.10
2022-12-23T01:06:54.755Z,6.22
2022-12-23T01:09:21.369Z,6.90
2022-12-23T01:11:48.089Z,7.60
2022-12-23T01:14:14.761Z,9.48
2022-12-23T01:16:42.023Z,9.45
2022-12-23T01:19:08.785Z,9.50
2022-12-23T01:21:36.085Z,9.18
2022-12-23T01:24:02.645Z,9.35
2022-12-23T01:26:29.300Z,9.00
2022-12-23T01:28:57.487Z,7.93
2022-12-23T01:31:26.247Z,7.85
2022-12-23T01:33:53.666Z,8.48
2022-12-23T01:36:21.220Z,7.57
2022-12-23T01:38:48.307Z,7.10
2022-12-23T01:41:37.162Z,6.88
2022-12-23T01:44:24.069Z,6.55
2022-12-23T01:46:51.110Z,6.22
2022-12-23T01:49:17.791Z,6.93
2022-12-23T01:51:44.451Z,6.18
2022-12-23T01:54:11.071Z,6.13
2022-12-23T01:56:39.872Z,5.35
2022-12-23T01:59:10.033Z,4.53
2022-12-23T02:01:55.755Z,5.03
2022-12-23T02:04:25.635Z,4.88
2022-12-23T02:07:11.052Z,5.05
2022-12-23T02:09:40.016Z,4.43
2022-12-23T02:12:30.686Z,4.40
2022-12-23T02:15:42.639Z,4.05
2022-12-23T02:18:40.972Z,4.57
2022-12-23T02:21:23.035Z,4.63
2022-12-23T02:24:08.639Z,3.85
2022-12-23T02:27:02.039Z,4.60
2022-12-23T02:30:02.735Z,4.40
2022-12-23T02:32:41.523Z,4.22
2022-12-23T02:35:13.498Z,3.97
2022-12-23T02:38:11.277Z,4.35
2022-12-23T02:40:57.184Z,3.53
2022-12-23T02:43:32.605Z,4.03
2022-12-23T02:46:07.201Z,3.58
2022-12-23T02:48:44.789Z,4.03
2022-12-23T02:51:14.548Z,4.30
2022-12-23T02:53:56.897Z,4.22
2022-12-23T02:56:26.095Z,4.03
2022-12-23T02:59:05.160Z,3.90
2022-12-23T03:01:34.723Z,4.13
2022-12-23T03:04:01.776Z,4.03
2022-12-23T03:06:28.341Z,4.63
2022-12-23T03:08:58.360Z,4.00
2022-12-23T03:12:14.179Z,4.25
2022-12-23T03:14:59.613Z,5.45
2022-12-23T03:17:41.793Z,4.18
2022-12-23T03:20:21.066Z,4.35
2022-12-23T03:22:59.548Z,4.00
2022-12-23T03:25:34.454Z,4.43
2022-12-23T03:28:48.972Z,3.40
2022-12-23T03:31:23.226Z,3.15
2022-12-23T03:33:56.519Z,3.53
2022-12-23T03:36:29.208Z,3.35
2022-12-23T03:38:57.022Z,3.50
2022-12-23T03:41:41.543Z,3.75
2022-12-23T03:44:19.076Z,3.00
2022-12-23T03:47:03.413Z,3.17
2022-12-23T03:49:42.866Z,3.38
2022-12-23T03:52:21.020Z,2.70
2022-12-23T03:55:01.835Z,2.78
2022-12-23T03:57:37.019Z,2.90
2022-12-23T04:00:04.477Z,2.63
2022-12-23T04:02:43.526Z,2.30
2022-12-23T04:05:29.885Z,3.10
2022-12-23T04:08:19.484Z,3.38
2022-12-23T04:10:46.938Z,3.05
2022-12-23T04:13:13.703Z,3.75
2022-12-23T04:15:42.015Z,4.18
2022-12-23T04:18:10.301Z,3.70
2022-12-23T04:20:37.628Z,3.58
2022-12-23T04:23:04.842Z,3.53
2022-12-23T04:25:31.638Z,3.53
2022-12-23T04:27:58.251Z,3.63
2022-12-23T04:30:29.705Z,3.65
2022-12-23T04:33:00.311Z,3.42
2022-12-23T04:35:26.914Z,4.30
2022-12-23T04:37:53.643Z,4.18
2022-12-23T04:40:20.243Z,3.92
2022-12-23T04:42:46.928Z,3.55
2022-12-23T04:45:13.646Z,2.88
2022-12-23T04:47:40.717Z,3.40
2022-12-23T04:50:08.445Z,2.75
2022-12-23T04:52:35.142Z,2.53
2022-12-23T04:55:01.747Z,2.90
2022-12-23T04:57:28.517Z,2.42
2022-12-23T04:59:55.101Z,2.90
2022-12-23T05:02:21.816Z,2.60
2022-12-23T05:04:48.498Z,2.58
2022-12-23T05:07:15.228Z,2.33
2022-12-23T05:09:41.817Z,2.80
2022-12-23T05:12:08.550Z,2.33
2022-12-23T05:14:35.435Z,2.95
2022-12-23T05:17:07.110Z,3.38
2022-12-23T05:19:34.598Z,3.05
2022-12-23T05:22:01.201Z,3.47
2022-12-23T05:24:27.871Z,3.30
2022-12-23T05:26:59.749Z,3.90
2022-12-23T05:29:27.600Z,2.95
2022-12-23T05:31:54.401Z,3.72
2022-12-23T05:34:21.502Z,3.70
2022-12-23T05:36:48.133Z,2.80
2022-12-23T05:39:14.788Z,3.10
2022-12-23T05:41:41.363Z,4.22
2022-12-23T05:44:08.012Z,2.90
2022-12-23T05:46:34.860Z,3.15
2022-12-23T05:49:01.676Z,3.13
2022-12-23T05:51:28.372Z,3.45
2022-12-23T05:53:55.148Z,3.05
2022-12-23T05:56:21.747Z,3.60
2022-12-23T05:58:48.330Z,2.70
2022-12-23T06:01:14.880Z,2.75
2022-12-23T06:03:41.775Z,2.97
2022-12-23T06:06:08.543Z,3.10
2022-12-23T06:08:35.186Z,3.72
2022-12-23T06:11:05.551Z,3.60
2022-12-23T06:13:32.281Z,3.60
2022-12-23T06:15:59.075Z,3.63
2022-12-23T06:18:25.839Z,3.67
2022-12-23T06:20:52.428Z,3.90
2022-12-23T06:23:19.056Z,3.97
2022-12-23T06:25:45.775Z,3.80
2022-12-23T06:28:12.680Z,4.20
2022-12-23T06:30:39.227Z,4.10
2022-12-23T06:33:05.872Z,4.63
2022-12-23T06:35:32.531Z,4.00
2022-12-23T06:37:59.189Z,4.30
2022-12-23T06:40:25.861Z,4.40
2022-12-23T06:42:52.542Z,3.85
2022-12-23T06:45:19.231Z,4.43
2022-12-23T06:47:45.931Z,4.10
2022-12-23T06:50:12.554Z,4.28
2022-12-23T06:52:39.455Z,4.68
2022-12-23T06:55:06.478Z,4.25
2022-12-23T06:57:33.208Z,3.90
2022-12-23T06:59:59.792Z,4.28
2022-12-23T07:02:26.558Z,3.92
2022-12-23T07:04:53.265Z,4.55
2022-12-23T07:07:19.961Z,4.00
2022-12-23T07:09:46.702Z,4.30
2022-12-23T07:12:13.456Z,3.55
2022-12-23T07:14:40.054Z,3.42
2022-12-23T07:17:06.961Z,3.20
2022-12-23T07:19:34.141Z,3.55
2022-12-23T07:22:00.813Z,3.22
2022-12-23T07:24:27.497Z,2.95
2022-12-23T07:26:55.828Z,3.05
2022-12-23T07:29:22.461Z,2.90
2022-12-23T07:31:49.495Z,3.25
2022-12-23T07:34:16.229Z,2.97
2022-12-23T07:36:42.881Z,3.67
2022-12-23T07:39:09.778Z,2.78
2022-12-23T07:41:36.509Z,3.40
2022-12-23T07:44:07.193Z,2.92
2022-12-23T07:46:33.920Z,4.40
2022-12-23T07:49:00.583Z,5.35
2022-12-23T07:51:27.236Z,4.97
2022-12-23T07:53:53.851Z,5.13
2022-12-23T07:56:20.848Z,5.35
2022-12-23T07:58:51.717Z,6.57
2022-12-23T08:01:19.219Z,5.15
2022-12-23T08:03:46.895Z,5.57
2022-12-23T08:06:15.236Z,5.47
2022-12-23T08:08:44.550Z,5.75
2022-12-23T08:11:13.021Z,4.70
2022-12-23T08:13:41.501Z,6.82
2022-12-23T08:16:09.764Z,5.00
2022-12-23T08:18:39.174Z,6.00
2022-12-23T08:21:14.628Z,5.72
2022-12-23T08:23:42.091Z,5.70
2022-12-23T08:26:21.448Z,5.35
2022-12-23T08:28:49.577Z,5.78
2022-12-23T08:31:25.640Z,5.57
2022-12-23T08:33:55.098Z,5.45
2022-12-23T08:36:33.257Z,5.38
2022-12-23T08:39:03.462Z,5.60
2022-12-23T08:41:33.444Z,5.45
2022-12-23T08:44:00.337Z,7.45
2022-12-23T08:46:27.219Z,8.35
2022-12-23T08:48:55.062Z,7.45
2022-12-23T08:51:23.588Z,7.82
2022-12-23T08:53:56.256Z,6.47
2022-12-23T08:56:32.913Z,4.88
2022-12-23T08:59:00.603Z,5.57
2022-12-23T09:01:29.905Z,5.53
2022-12-23T09:03:56.855Z,6.00
2022-12-23T09:06:30.390Z,6.07
2022-12-23T09:08:58.160Z,6.32
2022-12-23T09:11:27.078Z,5.93
2022-12-23T09:13:54.753Z,5.60
2022-12-23T09:16:21.953Z,5.47
2022-12-23T09:18:48.820Z,5.63
2022-12-23T09:21:19.547Z,5.45
2022-12-23T09:23:47.108Z,5.93
2022-12-23T09:26:22.854Z,6.68
2022-12-23T09:28:49.944Z,7.07
2022-12-23T09:31:17.103Z,6.60
2022-12-23T09:33:47.940Z,6.25
2022-12-23T09:36:14.998Z,5.95
2022-12-23T09:38:41.743Z,6.57
2022-12-23T09:41:29.950Z,9.52
2022-12-23T09:44:14.628Z,7.88
2022-12-23T09:47:05.707Z,7.75
2022-12-23T09:49:33.715Z,7.47
2022-12-23T09:52:05.697Z,6.75
2022-12-23T09:54:45.993Z,8.38
2022-12-23T09:57:58.678Z,8.88
2022-12-23T10:00:26.700Z,7.45
2022-12-23T10:03:28.342Z,8.55
2022-12-23T10:06:10.354Z,6.95
2022-12-23T10:08:42.200Z,7.57
2022-12-23T10:11:41.389Z,7.78
2022-12-23T10:14:20.491Z,7.35
2022-12-23T10:16:52.768Z,7.57
2022-12-23T10:19:29.884Z,6.80
2022-12-23T10:22:07.269Z,7.85
2022-12-23T10:24:40.840Z,6.88
2022-12-23T10:27:37.108Z,6.82
2022-12-23T10:30:34.357Z,6.55
2022-12-23T10:33:17.151Z,6.22
2022-12-23T10:35:53.359Z,6.65
2022-12-23T10:38:41.656Z,6.88
2022-12-23T10:41:39.221Z,6.85
2022-12-23T10:44:30.106Z,6.93
2022-12-23T10:47:33.231Z,6.90
2022-12-23T10:50:09.858Z,5.78
2022-12-23T10:52:40.049Z,6.13
2022-12-23T10:55:15.364Z,6.78
2022-12-23T10:57:42.075Z,5.63
2022-12-23T11:00:22.341Z,6.40
2022-12-23T11:03:04.300Z,5.45
2022-12-23T11:05:33.361Z,5.97
2022-12-23T11:08:01.155Z,6.22
2022-12-23T11:10:33.055Z,6.38
2022-12-23T11:13:00.660Z,5.30
2022-12-23T11:15:40.440Z,5.22
2022-12-23T11:18:14.091Z,4.95
2022-12-23T11:20:45.088Z,4.50
2022-12-23T11:23:33.038Z,4.20
2022-12-23T11:26:09.860Z,3.30
2022-12-23T11:28:40.698Z,3.58
2022-12-23T11:31:11.806Z,3.58
2022-12-23T11:33:52.041Z,3.40
2022-12-23T11:36:24.607Z,3.58
2022-12-23T11:39:33.302Z,3.40
2022-12-23T11:42:11.738Z,3.67
2022-12-23T11:44:43.191Z,3.15
2022-12-23T11:47:22.020Z,2.72
2022-12-23T11:49:54.253Z,2.50
2022-12-23T11:52:29.979Z,2.63
2022-12-23T11:54:59.454Z,2.55
2022-12-23T11:57:43.033Z,2.50
2022-12-23T12:00:21.025Z,2.80
2022-12-23T12:02:52.689Z,2.85
2022-12-23T12:05:23.095Z,4.20
2022-12-23T12:07:51.847Z,3.45
2022-12-23T12:10:25.255Z,2.95
2022-12-23T12:12:56.913Z,2.97
2022-12-23T12:15:53.423Z,3.40
2022-12-23T12:20:53.809Z,3.92
2022-12-23T12:23:37.712Z,4.28
2022-12-23T12:26:24.431Z,4.35
2022-12-23T12:28:59.317Z,5.00
2022-12-23T12:31:34.068Z,5.35
2022-12-23T12:34:14.595Z,6.63
2022-12-23T12:36:50.763Z,8.18
2022-12-23T12:39:22.761Z,7.45
2022-12-23T12:42:00.189Z,9.70
2022-12-23T12:44:47.472Z,9.63
2022-12-23T12:47:53.929Z,9.20
2022-12-23T12:50:27.933Z,8.70
2022-12-23T12:52:59.618Z,8.18
2022-12-23T12:55:30.677Z,8.13
2022-12-23T12:57:57.675Z,7.28
2022-12-23T13:00:25.302Z,7.10
2022-12-23T13:03:12.134Z,6.22
2022-12-23T13:05:54.654Z,5.68
2022-12-23T13:08:46.235Z,4.97
2022-12-23T13:11:28.593Z,6.13
2022-12-23T13:14:40.181Z,6.15
2022-12-23T13:17:24.443Z,6.38
2022-12-23T13:20:09.657Z,5.65
2022-12-23T13:22:38.579Z,6.13
2022-12-23T13:25:11.256Z,5.88
2022-12-23T13:27:58.009Z,6.30
2022-12-23T13:30:32.076Z,6.45
2022-12-23T13:33:17.477Z,5.50
2022-12-23T13:36:06.569Z,5.55
2022-12-23T13:39:05.490Z,5.47
2022-12-23T13:41:48.925Z,5.80
2022-12-23T13:44:18.758Z,5.97
2022-12-23T13:47:00.561Z,5.25
2022-12-23T13:49:56.358Z,5.00
2022-12-23T13:52:44.297Z,5.40
2022-12-23T13:55:13.716Z,3.60
2022-12-23T13:58:09.608Z,2.83
2022-12-23T14:00:36.468Z,2.33
2022-12-23T14:03:03.398Z,2.40
2022-12-23T14:05:33.222Z,2.90
2022-12-23T14:08:02.513Z,3.25
2022-12-23T14:10:30.777Z,2.67
2022-12-23T14:13:07.458Z,2.67
2022-12-23T14:16:12.673Z,2.65
2022-12-23T14:19:10.423Z,2.67
2022-12-23T14:21:58.309Z,2.80
2022-12-23T14:25:02.818Z,3.00
2022-12-23T14:27:35.295Z,3.10
2022-12-23T14:30:32.969Z,3.20
2022-12-23T14:33:18.033Z,2.95
2022-12-23T14:35:44.701Z,2.63
2022-12-23T14:38:14.162Z,3.50
2022-12-23T14:40:43.807Z,3.40
2022-12-23T14:43:22.609Z,2.78
2022-12-23T14:45:51.567Z,3.67
2022-12-23T14:48:33.428Z,3.47
2022-12-23T14:51:09.527Z,4.22
2022-12-23T14:53:58.011Z,3.80
2022-12-23T14:56:40.350Z,4.03
2022-12-23T14:59:16.936Z,3.92
2022-12-23T15:02:02.794Z,3.58
2022-12-23T15:04:50.951Z,4.07
2022-12-23T15:07:34.398Z,4.10
2022-12-23T15:10:08.688Z,4.40
2022-12-23T15:12:42.126Z,4.05
2022-12-23T15:15:25.136Z,4.55
2022-12-23T15:18:12.313Z,4.43
2022-12-23T15:20:39.561Z,4.30
2022-12-23T15:23:12.080Z,4.53
2022-12-23T15:25:43.698Z,4.55
2022-12-23T15:28:18.356Z,4.75
2022-12-23T15:30:56.747Z,4.78
2022-12-23T15:34:01.332Z,4.35
2022-12-23T15:36:14.976Z,4.40
2022-12-23T15:38:42.056Z,4.00
2022-12-23T15:41:17.072Z,4.45
2022-12-23T15:43:44.872Z,4.90
2022-12-23T15:46:23.410Z,4.25
2022-12-23T15:48:54.174Z,4.25
2022-12-23T15:52:06.246Z,5.10
2022-12-23T15:54:34.935Z,5.18
2022-12-23T15:57:03.402Z,5.07
2022-12-23T15:59:39.577Z,5.20
2022-12-23T16:02:58.479Z,5.10
2022-12-23T16:05:05.539Z,5.40
2022-12-23T16:07:35.757Z,4.80
2022-12-23T16:10:11.693Z,5.60
2022-12-23T16:12:40.091Z,4.97
2022-12-23T16:15:32.393Z,5.72
2022-12-23T16:18:34.047Z,6.13
2022-12-23T16:21:04.041Z,5.38
2022-12-23T16:23:35.130Z,5.57
2022-12-23T16:26:02.952Z,6.25
2022-12-23T16:28:42.762Z,5.85
2022-12-23T16:31:10.753Z,5.93
2022-12-23T16:33:42.481Z,4.72
2022-12-23T16:36:27.351Z,5.43
2022-12-23T16:39:23.921Z,6.38
2022-12-23T16:41:50.896Z,6.75
2022-12-23T16:44:17.549Z,6.55
2022-12-23T16:46:48.571Z,7.10
2022-12-23T16:49:20.687Z,7.22
2022-12-23T16:51:47.699Z,7.10
2022-12-23T16:54:17.698Z,5.35
2022-12-23T16:56:46.831Z,7.20
2022-12-23T16:59:14.146Z,6.82
2022-12-23T17:01:44.765Z,5.32
2022-12-23T17:04:12.435Z,5.57
2022-12-23T17:06:40.733Z,6.38
2022-12-23T17:09:10.172Z,5.63
2022-12-23T17:11:49.489Z,6.63
2022-12-23T17:14:16.167Z,5.05
2022-12-23T17:16:43.898Z,5.40
2022-12-23T17:19:11.474Z,5.80
2022-12-23T17:21:39.769Z,5.15
2022-12-23T17:24:12.481Z,6.28
2022-12-23T17:26:39.974Z,7.57
2022-12-23T17:29:06.900Z,6.72
2022-12-23T17:31:34.654Z,6.03
2022-12-23T17:34:02.217Z,7.93
2022-12-23T17:36:29.454Z,8.27
2022-12-23T17:38:56.128Z,7.85
2022-12-23T17:41:31.414Z,9.10
2022-12-23T17:43:58.833Z,9.07
2022-12-23T17:46:26.883Z,10.02
2022-12-23T17:48:54.068Z,9.60
2022-12-23T17:51:22.639Z,10.07
2022-12-23T17:53:56.840Z,10.20
2022-12-23T17:56:25.106Z,10.48
2022-12-23T17:58:52.150Z,9.68
2022-12-23T18:01:26.482Z,10.68
2022-12-23T18:03:56.460Z,9.45
2022-12-23T18:06:24.760Z,10.63
2022-12-23T18:08:51.796Z,11.02
2022-12-23T18:11:22.648Z,11.38
2022-12-23T18:13:52.156Z,10.88
2022-12-23T18:16:18.915Z,11.00
2022-12-23T18:18:46.864Z,10.40
2022-12-23T18:21:20.344Z,8.40
2022-12-23T18:23:47.287Z,7.97
2022-12-23T18:26:17.494Z,8.77
2022-12-23T18:28:44.664Z,7.68
2022-12-23T18:31:20.996Z,7.95
2022-12-23T18:33:48.128Z,7.53
2022-12-23T18:36:29.149Z,8.23
2022-12-23T18:38:57.245Z,8.30
2022-12-23T18:41:25.344Z,7.63
2022-12-23T18:43:52.795Z,7.88
2022-12-23T18:46:22.975Z,8.82
2022-12-23T18:48:49.842Z,9.60
2022-12-23T18:51:18.023Z,8.80
2022-12-23T18:53:45.766Z,10.90
2022-12-23T18:56:19.144Z,9.82
2022-12-23T18:58:45.992Z,7.50
2022-12-23T19:01:14.113Z,6.80
2022-12-23T19:03:41.999Z,8.07
2022-12-23T19:06:11.867Z,7.57
2022-12-23T19:08:39.499Z,7.10
2022-12-23T19:11:18.042Z,7.28
2022-12-23T19:13:45.231Z,7.75
2022-12-23T19:16:17.272Z,9.07
2022-12-23T19:18:46.021Z,9.65
2022-12-23T19:21:12.870Z,11.07
2022-12-23T19:23:41.117Z,11.27
2022-12-23T19:26:13.379Z,12.70
2022-12-23T19:28:41.648Z,13.23
2022-12-23T19:31:09.208Z,11.55
2022-12-23T19:33:40.440Z,10.75
2022-12-23T19:36:11.544Z,9.98
2022-12-23T19:38:39.164Z,9.68
2022-12-23T19:41:07.442Z,9.93
2022-12-23T19:43:34.962Z,9.07
2022-12-23T19:46:04.643Z,9.13
2022-12-23T19:48:31.346Z,10.88
2022-12-23T19:50:58.983Z,10.45
2022-12-23T19:53:26.542Z,10.35
2022-12-23T19:56:02.412Z,10.80
2022-12-23T19:58:33.306Z,10.52
2022-12-23T20:01:11.973Z,10.90
2022-12-23T20:03:39.668Z,11.80
2022-12-23T20:06:08.143Z,11.20
2022-12-23T20:08:35.213Z,11.07
2022-12-23T20:11:04.153Z,11.00
2022-12-23T20:13:30.938Z,11.27
2022-12-23T20:15:57.933Z,9.77
2022-12-23T20:18:24.750Z,9.45
2022-12-23T20:20:51.593Z,10.32
2022-12-23T20:23:18.275Z,9.77
2022-12-23T20:25:45.397Z,9.13
2022-12-23T20:28:12.293Z,9.20
2022-12-23T20:30:39.038Z,9.77
2022-12-23T20:33:05.923Z,9.23
2022-12-23T20:35:32.530Z,10.20
2022-12-23T20:37:59.288Z,9.13
2022-12-23T20:40:25.911Z,9.07
2022-12-23T20:42:52.703Z,9.18
2022-12-23T20:45:20.928Z,9.90
2022-12-23T20:47:47.771Z,9.50
2022-12-23T20:50:14.724Z,11.43
2022-12-23T20:52:41.431Z,11.23
2022-12-23T20:55:08.495Z,9.80
2022-12-23T20:57:35.969Z,9.75
2022-12-23T21:00:05.469Z,14.63
2022-12-23T21:02:32.295Z,12.15
2022-12-23T21:04:58.866Z,12.20
2022-12-23T21:07:26.356Z,10.20
2022-12-23T21:09:52.926Z,9.27
2022-12-23T21:12:19.681Z,8.60
2022-12-23T21:14:46.397Z,8.55
2022-12-23T21:17:13.175Z,7.82
2022-12-23T21:19:39.783Z,7.43
2022-12-23T21:22:06.513Z,6.50
2022-12-23T21:24:33.118Z,6.57
2022-12-23T21:26:59.798Z,6.07
2022-12-23T21:29:26.736Z,6.45
2022-12-23T21:31:53.655Z,5.80
2022-12-23T21:34:20.590Z,7.05
2022-12-23T21:36:47.445Z,7.47
2022-12-23T21:39:16.133Z,6.65
2022-12-23T21:41:43.312Z,7.03
2022-12-23T21:44:11.705Z,6.43
2022-12-23T21:46:38.440Z,6.38
2022-12-23T21:49:05.222Z,7.18
2022-12-23T21:51:39.695Z,7.10
2022-12-23T21:54:07.720Z,7.53
2022-12-23T21:56:34.538Z,7.50
2022-12-23T21:59:03.513Z,7.80
2022-12-23T22:01:31.353Z,7.05
2022-12-23T22:03:58.542Z,8.05
2022-12-23T22:06:32.003Z,7.82
2022-12-23T22:08:59.878Z,9.10
2022-12-23T22:11:29.616Z,9.57
2022-12-23T22:13:58.199Z,9.30
2022-12-23T22:16:26.870Z,8.63
2022-12-23T22:18:55.202Z,9.15
2022-12-23T22:21:24.703Z,8.43
2022-12-23T22:23:52.754Z,9.35
2022-12-23T22:26:25.363Z,7.90
2022-12-23T22:28:59.095Z,8.23
2022-12-23T22:31:47.599Z,7.18
2022-12-23T22:34:17.395Z,6.25
2022-12-23T22:36:44.844Z,6.40
2022-12-23T22:39:19.968Z,5.32
2022-12-23T22:41:48.844Z,6.32
2022-12-23T22:44:16.288Z,6.38
2022-12-23T22:46:43.369Z,5.40
2022-12-23T22:49:13.961Z,4.78
2022-12-23T22:51:42.571Z,5.60
2022-12-23T22:54:10.063Z,5.95
2022-12-23T22:56:37.570Z,5.15
2022-12-23T22:59:04.789Z,5.57
2022-12-23T23:01:34.087Z,5.18
2022-12-23T23:04:03.000Z,5.78
2022-12-23T23:06:37.813Z,6.07
2022-12-23T23:09:11.608Z,5.53
2022-12-23T23:11:38.644Z,7.13
2022-12-23T23:14:05.523Z,7.22
2022-12-23T23:16:33.333Z,8.48
2022-12-23T23:19:00.328Z,8.80
2022-12-23T23:21:27.287Z,8.60
2022-12-23T23:23:54.016Z,9.10
2022-12-23T23:26:21.160Z,9.05
2022-12-23T23:28:48.341Z,9.60
2022-12-23T23:34:02.031Z,9.73
2022-12-23T23:36:28.741Z,10.70
2022-12-23T23:38:55.683Z,10.00
2022-12-23T23:41:23.556Z,11.10
2022-12-23T23:43:51.600Z,9.23
2022-12-23T23:46:18.364Z,9.90
2022-12-23T23:48:45.172Z,8.93
2022-12-23T23:51:12.728Z,8.80
2022-12-23T23:53:40.201Z,8.82
2022-12-23T23:56:07.865Z,9.70
2022-12-23T23:58:36.241Z,9.05
